METAR AND TAF INFORMATION
METAR FOR LEAS
ADDS - METARS form results

(0046 UTC 06 August 2020)
Data provider http://aviationweather.gov/metar/data/
 
METAR text: LEAS 060030Z AUTO 20003KT CAVOK 18/16 Q1015
Conditions at: LEAS (ASTURIAS/AVILES , ES) observed 0030 UTC 06 August 2020
Temperature: 18.0°C (64°F)
Dewpoint: 16.0°C (61°F) [RH = 88%]
Pressure (altimeter): 29.97 inches Hg (1015.0 mb)
Winds: from the SSW (200 degrees) at 3 MPH (3 knots; 1.5 m/s)
Visibility: 6 or more miles (10+ km)
Ceiling: ceiling and visibility are OK
Clouds: unknown
Weather: no significant weather observed at this time

METAR text: LEAS 060000Z AUTO 20003KT CAVOK 18/17 Q1015
Conditions at: LEAS (ASTURIAS/AVILES , ES) observed 0000 UTC 06 August 2020
Temperature: 18.0°C (64°F)
Dewpoint: 17.0°C (63°F) [RH = 94%]
Pressure (altimeter): 29.97 inches Hg (1015.0 mb)
Winds: from the SSW (200 degrees) at 3 MPH (3 knots; 1.5 m/s)
Visibility: 6 or more miles (10+ km)
Ceiling: ceiling and visibility are OK
Clouds: unknown
Weather: no significant weather observed at this time

Forecast for: LEAS (ASTURIAS/AVILES , ES)
Text: TAF LEAS 052000Z 0521/0621 VRB02KT 9999 FEW015 TX25/0615Z TN17/0603Z
Forecast period: 2100 UTC 05 August 2020 to 2100 UTC 06 August 2020
Forecast type: FROM: standard forecast or significant change
Winds: variable direction winds at 2 MPH (2 knots; 1.0 m/s)
Visibility: 6 or more miles (10+ km)
Ceiling: at least 12,000 feet AGL
Clouds: few clouds at 1500 feet AGL
Weather: no significant weather forecast for this period
Text: PROB40
Forecast period: 2200 UTC 05 August 2020 to 0900 UTC 06 August 2020
Forecast type: TEMPORARY: The following changes expected for less than half the time period
Visibility: 1.86 miles (2.99 km)
Ceiling: 1000 feet AGL
Clouds: broken clouds at 1000 feet AGL
Weather: BR  (mist)
Text: TEMPO 0522/0609 3000 BR BKN010
Forecast period: 1000 to 1900 UTC 06 August 2020
Forecast type: TEMPORARY: The following changes expected for less than half the time period
Winds: from the NE (40 degrees) at 12 MPH (10 knots; 5.1 m/s)
Visibility: missing
Ceiling: unknown
Clouds: missing
Weather: no significant weather forecast for this period

 AIRPORT MAP

 RUNWAY INFORMATION
Runway 11 Runway length 7218 ft Runway width 148 ft
Runway elevation 399 ft Runway displaced threshold 0 ft Runway heading 109
Runway 29 Runway length 7218 ft Runway width 148 ft
Runway elevation 399 ft Runway displaced threshold 0 ft Runway heading 289

 AIRPORT FREQUENCIES
Type APP Name APP Frequency 118.15 MHZ
Type GND Name GND Frequency 121.7 MHZ
Type TWR Name TWR Frequency 118.15 MHZ

 AIRPORT NEAR NAVIGATION AIDS
Type NDB Name Asturias Frequency 325 KHZ
Type NDB Name Asturias Frequency 387 KHZ
Type VOR-DME Name Asturias Frequency 112400 KHZ



Powered by Virtual Airlines Manager [v2.6.2]